sensor_id;sensor_type;location;lat;lon;timestamp;temperature;humidity
4354;DHT22;11018;51.258;6.806;2023-05-23T00:02:20;16.30;81.00
4354;DHT22;11018;51.258;6.806;2023-05-23T00:04:45;16.40;80.60
4354;DHT22;11018;51.258;6.806;2023-05-23T00:07:11;16.40;80.50
4354;DHT22;11018;51.258;6.806;2023-05-23T00:09:36;16.40;79.80
4354;DHT22;11018;51.258;6.806;2023-05-23T00:12:02;16.50;80.20
4354;DHT22;11018;51.258;6.806;2023-05-23T00:14:27;16.50;79.80
4354;DHT22;11018;51.258;6.806;2023-05-23T00:16:58;16.50;80.30
4354;DHT22;11018;51.258;6.806;2023-05-23T00:19:23;16.40;81.10
4354;DHT22;11018;51.258;6.806;2023-05-23T00:21:50;16.40;81.50
4354;DHT22;11018;51.258;6.806;2023-05-23T00:24:18;16.40;81.10
4354;DHT22;11018;51.258;6.806;2023-05-23T00:26:47;16.40;82.70
4354;DHT22;11018;51.258;6.806;2023-05-23T00:29:14;16.40;82.10
4354;DHT22;11018;51.258;6.806;2023-05-23T00:31:41;16.40;82.80
4354;DHT22;11018;51.258;6.806;2023-05-23T00:34:16;16.40;82.60
4354;DHT22;11018;51.258;6.806;2023-05-23T00:36:42;16.40;82.30
4354;DHT22;11018;51.258;6.806;2023-05-23T00:39:12;16.40;82.50
4354;DHT22;11018;51.258;6.806;2023-05-23T00:41:44;16.30;81.30
4354;DHT22;11018;51.258;6.806;2023-05-23T00:44:10;16.30;82.30
4354;DHT22;11018;51.258;6.806;2023-05-23T00:46:35;16.30;81.40
4354;DHT22;11018;51.258;6.806;2023-05-23T00:49:01;16.30;80.70
4354;DHT22;11018;51.258;6.806;2023-05-23T00:51:27;16.30;80.10
4354;DHT22;11018;51.258;6.806;2023-05-23T00:53:53;16.20;77.30
4354;DHT22;11018;51.258;6.806;2023-05-23T00:56:19;16.10;78.30
4354;DHT22;11018;51.258;6.806;2023-05-23T00:58:45;16.00;75.30
4354;DHT22;11018;51.258;6.806;2023-05-23T01:01:12;16.00;73.70
4354;DHT22;11018;51.258;6.806;2023-05-23T01:03:39;15.90;73.90
4354;DHT22;11018;51.258;6.806;2023-05-23T01:06:08;16.00;73.00
4354;DHT22;11018;51.258;6.806;2023-05-23T01:08:34;15.90;73.30
4354;DHT22;11018;51.258;6.806;2023-05-23T01:11:05;16.00;72.70
4354;DHT22;11018;51.258;6.806;2023-05-23T01:13:42;16.00;72.00
4354;DHT22;11018;51.258;6.806;2023-05-23T01:16:16;16.00;72.20
4354;DHT22;11018;51.258;6.806;2023-05-23T01:19:03;15.90;72.20
4354;DHT22;11018;51.258;6.806;2023-05-23T01:21:33;16.00;71.80
4354;DHT22;11018;51.258;6.806;2023-05-23T01:24:16;15.90;71.50
4354;DHT22;11018;51.258;6.806;2023-05-23T01:29:26;15.90;71.50
4354;DHT22;11018;51.258;6.806;2023-05-23T01:31:54;16.00;72.00
4354;DHT22;11018;51.258;6.806;2023-05-23T01:34:21;16.00;71.30
4354;DHT22;11018;51.258;6.806;2023-05-23T01:36:49;16.00;71.50
4354;DHT22;11018;51.258;6.806;2023-05-23T01:39:18;16.00;72.50
4354;DHT22;11018;51.258;6.806;2023-05-23T01:41:44;15.90;73.30
4354;DHT22;11018;51.258;6.806;2023-05-23T01:44:09;16.00;73.80
4354;DHT22;11018;51.258;6.806;2023-05-23T01:46:36;16.00;73.80
4354;DHT22;11018;51.258;6.806;2023-05-23T01:49:08;16.00;73.70
4354;DHT22;11018;51.258;6.806;2023-05-23T01:51:35;16.10;73.10
4354;DHT22;11018;51.258;6.806;2023-05-23T01:54:01;16.10;73.40
4354;DHT22;11018;51.258;6.806;2023-05-23T01:56:27;16.10;73.60
4354;DHT22;11018;51.258;6.806;2023-05-23T01:58:53;16.10;73.80
4354;DHT22;11018;51.258;6.806;2023-05-23T02:01:19;16.00;73.80
4354;DHT22;11018;51.258;6.806;2023-05-23T02:03:44;15.90;74.80
4354;DHT22;11018;51.258;6.806;2023-05-23T02:06:10;16.00;74.50
4354;DHT22;11018;51.258;6.806;2023-05-23T02:08:36;16.00;74.90
4354;DHT22;11018;51.258;6.806;2023-05-23T02:11:02;15.90;73.80
4354;DHT22;11018;51.258;6.806;2023-05-23T02:13:27;15.90;74.80
4354;DHT22;11018;51.258;6.806;2023-05-23T02:15:53;15.90;73.50
4354;DHT22;11018;51.258;6.806;2023-05-23T02:18:19;15.90;74.50
4354;DHT22;11018;51.258;6.806;2023-05-23T02:20:45;15.90;74.20
4354;DHT22;11018;51.258;6.806;2023-05-23T02:23:11;15.90;74.60
4354;DHT22;11018;51.258;6.806;2023-05-23T02:25:37;15.90;74.80
4354;DHT22;11018;51.258;6.806;2023-05-23T02:28:02;16.00;74.00
4354;DHT22;11018;51.258;6.806;2023-05-23T02:30:28;16.00;73.80
4354;DHT22;11018;51.258;6.806;2023-05-23T02:32:53;15.90;73.80
4354;DHT22;11018;51.258;6.806;2023-05-23T02:35:19;15.90;74.00
4354;DHT22;11018;51.258;6.806;2023-05-23T02:37:45;15.80;75.00
4354;DHT22;11018;51.258;6.806;2023-05-23T02:40:10;15.90;75.40
4354;DHT22;11018;51.258;6.806;2023-05-23T02:42:36;15.90;75.60
4354;DHT22;11018;51.258;6.806;2023-05-23T02:45:02;15.90;75.00
4354;DHT22;11018;51.258;6.806;2023-05-23T02:47:27;15.90;75.40
4354;DHT22;11018;51.258;6.806;2023-05-23T02:49:53;15.90;75.70
4354;DHT22;11018;51.258;6.806;2023-05-23T02:52:18;15.90;74.50
4354;DHT22;11018;51.258;6.806;2023-05-23T02:54:44;15.90;75.10
4354;DHT22;11018;51.258;6.806;2023-05-23T02:57:09;15.90;75.20
4354;DHT22;11018;51.258;6.806;2023-05-23T02:59:35;15.90;75.30
4354;DHT22;11018;51.258;6.806;2023-05-23T03:02:01;15.80;76.70
4354;DHT22;11018;51.258;6.806;2023-05-23T03:04:26;15.80;77.10
4354;DHT22;11018;51.258;6.806;2023-05-23T03:06:52;15.80;78.10
4354;DHT22;11018;51.258;6.806;2023-05-23T03:09:19;15.70;78.90
4354;DHT22;11018;51.258;6.806;2023-05-23T03:11:44;15.70;78.90
4354;DHT22;11018;51.258;6.806;2023-05-23T03:14:10;15.70;78.20
4354;DHT22;11018;51.258;6.806;2023-05-23T03:16:36;15.70;78.50
4354;DHT22;11018;51.258;6.806;2023-05-23T03:19:02;15.70;78.20
4354;DHT22;11018;51.258;6.806;2023-05-23T03:21:29;15.70;77.60
4354;DHT22;11018;51.258;6.806;2023-05-23T03:23:56;15.70;79.00
4354;DHT22;11018;51.258;6.806;2023-05-23T03:26:21;15.70;78.80
4354;DHT22;11018;51.258;6.806;2023-05-23T03:28:48;15.60;78.60
4354;DHT22;11018;51.258;6.806;2023-05-23T03:31:14;15.60;78.30
4354;DHT22;11018;51.258;6.806;2023-05-23T03:33:39;15.60;78.10
4354;DHT22;11018;51.258;6.806;2023-05-23T03:36:05;15.60;77.30
4354;DHT22;11018;51.258;6.806;2023-05-23T03:38:31;15.50;76.40
4354;DHT22;11018;51.258;6.806;2023-05-23T03:40:56;15.60;75.80
4354;DHT22;11018;51.258;6.806;2023-05-23T03:43:22;15.60;76.10
4354;DHT22;11018;51.258;6.806;2023-05-23T03:45:48;15.60;75.80
4354;DHT22;11018;51.258;6.806;2023-05-23T03:48:13;15.60;76.20
4354;DHT22;11018;51.258;6.806;2023-05-23T03:50:39;15.50;76.90
4354;DHT22;11018;51.258;6.806;2023-05-23T03:53:04;15.60;76.30
4354;DHT22;11018;51.258;6.806;2023-05-23T03:55:30;15.60;76.70
4354;DHT22;11018;51.258;6.806;2023-05-23T03:57:57;15.60;76.10
4354;DHT22;11018;51.258;6.806;2023-05-23T04:00:22;15.60;76.30
4354;DHT22;11018;51.258;6.806;2023-05-23T04:02:48;15.60;76.50
4354;DHT22;11018;51.258;6.806;2023-05-23T04:05:22;15.60;76.60
4354;DHT22;11018;51.258;6.806;2023-05-23T04:07:48;15.70;77.20
4354;DHT22;11018;51.258;6.806;2023-05-23T04:10:15;15.60;76.80
4354;DHT22;11018;51.258;6.806;2023-05-23T04:12:41;15.60;78.00
4354;DHT22;11018;51.258;6.806;2023-05-23T04:15:07;15.50;79.60
4354;DHT22;11018;51.258;6.806;2023-05-23T04:17:33;15.50;80.30
4354;DHT22;11018;51.258;6.806;2023-05-23T04:19:59;15.50;80.60
4354;DHT22;11018;51.258;6.806;2023-05-23T04:22:25;15.50;80.70
4354;DHT22;11018;51.258;6.806;2023-05-23T04:24:50;15.50;81.50
4354;DHT22;11018;51.258;6.806;2023-05-23T04:27:16;15.50;82.10
4354;DHT22;11018;51.258;6.806;2023-05-23T04:29:41;15.40;82.40
4354;DHT22;11018;51.258;6.806;2023-05-23T04:32:08;15.40;83.30
4354;DHT22;11018;51.258;6.806;2023-05-23T04:34:34;15.40;83.60
4354;DHT22;11018;51.258;6.806;2023-05-23T04:37:00;15.50;83.50
4354;DHT22;11018;51.258;6.806;2023-05-23T04:39:27;15.50;82.00
4354;DHT22;11018;51.258;6.806;2023-05-23T04:41:54;15.40;83.00
4354;DHT22;11018;51.258;6.806;2023-05-23T04:44:19;15.40;84.50
4354;DHT22;11018;51.258;6.806;2023-05-23T04:46:45;15.30;84.30
4354;DHT22;11018;51.258;6.806;2023-05-23T04:49:10;15.40;84.40
4354;DHT22;11018;51.258;6.806;2023-05-23T04:51:37;15.30;83.90
4354;DHT22;11018;51.258;6.806;2023-05-23T04:54:03;15.30;84.80
4354;DHT22;11018;51.258;6.806;2023-05-23T04:56:28;15.40;84.70
4354;DHT22;11018;51.258;6.806;2023-05-23T04:58:55;15.40;83.60
4354;DHT22;11018;51.258;6.806;2023-05-23T05:01:20;15.40;84.00
4354;DHT22;11018;51.258;6.806;2023-05-23T05:03:48;15.50;84.00
4354;DHT22;11018;51.258;6.806;2023-05-23T05:06:14;15.50;84.80
4354;DHT22;11018;51.258;6.806;2023-05-23T05:08:41;15.40;84.80
4354;DHT22;11018;51.258;6.806;2023-05-23T05:11:08;15.30;85.80
4354;DHT22;11018;51.258;6.806;2023-05-23T05:13:34;15.30;86.80
4354;DHT22;11018;51.258;6.806;2023-05-23T05:15:59;15.30;87.70
4354;DHT22;11018;51.258;6.806;2023-05-23T05:18:25;15.30;87.00
4354;DHT22;11018;51.258;6.806;2023-05-23T05:20:51;15.40;87.30
4354;DHT22;11018;51.258;6.806;2023-05-23T05:23:17;15.30;87.00
4354;DHT22;11018;51.258;6.806;2023-05-23T05:25:43;15.20;87.90
4354;DHT22;11018;51.258;6.806;2023-05-23T05:28:08;15.30;88.00
4354;DHT22;11018;51.258;6.806;2023-05-23T05:30:34;15.40;87.00
4354;DHT22;11018;51.258;6.806;2023-05-23T05:33:00;15.40;85.80
4354;DHT22;11018;51.258;6.806;2023-05-23T05:35:31;15.40;86.30
4354;DHT22;11018;51.258;6.806;2023-05-23T05:37:57;15.40;85.90
4354;DHT22;11018;51.258;6.806;2023-05-23T05:40:23;15.40;85.20
4354;DHT22;11018;51.258;6.806;2023-05-23T05:42:49;15.30;87.00
4354;DHT22;11018;51.258;6.806;2023-05-23T05:45:15;15.30;87.50
4354;DHT22;11018;51.258;6.806;2023-05-23T05:47:40;15.40;87.60
4354;DHT22;11018;51.258;6.806;2023-05-23T05:50:06;15.40;86.40
4354;DHT22;11018;51.258;6.806;2023-05-23T05:52:35;15.40;86.70
4354;DHT22;11018;51.258;6.806;2023-05-23T05:55:09;15.40;86.60
4354;DHT22;11018;51.258;6.806;2023-05-23T05:57:38;15.30;86.50
4354;DHT22;11018;51.258;6.806;2023-05-23T06:00:09;15.30;86.70
4354;DHT22;11018;51.258;6.806;2023-05-23T06:02:43;15.20;87.40
4354;DHT22;11018;51.258;6.806;2023-05-23T06:05:12;15.30;87.30
4354;DHT22;11018;51.258;6.806;2023-05-23T06:07:38;15.30;86.00
4354;DHT22;11018;51.258;6.806;2023-05-23T06:10:05;15.30;86.00
4354;DHT22;11018;51.258;6.806;2023-05-23T06:12:34;15.30;85.30
4354;DHT22;11018;51.258;6.806;2023-05-23T06:15:00;15.30;84.80
4354;DHT22;11018;51.258;6.806;2023-05-23T06:17:26;15.40;82.30
4354;DHT22;11018;51.258;6.806;2023-05-23T06:19:52;15.50;82.40
4354;DHT22;11018;51.258;6.806;2023-05-23T06:22:17;15.50;80.40
4354;DHT22;11018;51.258;6.806;2023-05-23T06:24:43;15.50;79.10
4354;DHT22;11018;51.258;6.806;2023-05-23T06:27:08;15.50;77.90
4354;DHT22;11018;51.258;6.806;2023-05-23T06:29:34;15.50;77.40
4354;DHT22;11018;51.258;6.806;2023-05-23T06:32:02;15.60;77.60
4354;DHT22;11018;51.258;6.806;2023-05-23T06:34:27;15.70;77.00
4354;DHT22;11018;51.258;6.806;2023-05-23T06:36:54;15.70;73.70
4354;DHT22;11018;51.258;6.806;2023-05-23T06:39:19;15.70;72.80
4354;DHT22;11018;51.258;6.806;2023-05-23T06:41:46;15.70;73.40
4354;DHT22;11018;51.258;6.806;2023-05-23T06:44:11;15.60;74.10
4354;DHT22;11018;51.258;6.806;2023-05-23T06:46:37;15.70;73.70
4354;DHT22;11018;51.258;6.806;2023-05-23T06:49:02;15.60;73.20
4354;DHT22;11018;51.258;6.806;2023-05-23T06:51:28;15.60;73.20
4354;DHT22;11018;51.258;6.806;2023-05-23T06:53:53;15.70;72.50
4354;DHT22;11018;51.258;6.806;2023-05-23T06:56:21;15.80;71.80
4354;DHT22;11018;51.258;6.806;2023-05-23T06:58:47;15.80;70.30
4354;DHT22;11018;51.258;6.806;2023-05-23T07:01:13;15.90;70.60
4354;DHT22;11018;51.258;6.806;2023-05-23T07:03:38;16.00;68.80
4354;DHT22;11018;51.258;6.806;2023-05-23T07:06:06;16.00;67.30
4354;DHT22;11018;51.258;6.806;2023-05-23T07:08:32;16.00;67.70
4354;DHT22;11018;51.258;6.806;2023-05-23T07:10:57;16.10;67.20
4354;DHT22;11018;51.258;6.806;2023-05-23T07:13:23;16.00;66.10
4354;DHT22;11018;51.258;6.806;2023-05-23T07:15:49;16.00;66.80
4354;DHT22;11018;51.258;6.806;2023-05-23T07:18:14;16.00;65.80
4354;DHT22;11018;51.258;6.806;2023-05-23T07:20:40;16.30;64.40
4354;DHT22;11018;51.258;6.806;2023-05-23T07:23:05;16.30;61.50
4354;DHT22;11018;51.258;6.806;2023-05-23T07:25:31;16.20;62.40
4354;DHT22;11018;51.258;6.806;2023-05-23T07:27:56;16.20;63.30
4354;DHT22;11018;51.258;6.806;2023-05-23T07:30:22;16.00;64.40
4354;DHT22;11018;51.258;6.806;2023-05-23T07:32:48;15.90;64.00
4354;DHT22;11018;51.258;6.806;2023-05-23T07:35:14;15.80;66.90
4354;DHT22;11018;51.258;6.806;2023-05-23T07:37:40;15.90;66.30
4354;DHT22;11018;51.258;6.806;2023-05-23T07:40:06;15.90;66.00
4354;DHT22;11018;51.258;6.806;2023-05-23T07:42:33;15.90;66.00
4354;DHT22;11018;51.258;6.806;2023-05-23T07:44:59;15.80;67.20
4354;DHT22;11018;51.258;6.806;2023-05-23T07:47:25;15.80;67.40
4354;DHT22;11018;51.258;6.806;2023-05-23T07:49:52;15.80;68.80
4354;DHT22;11018;51.258;6.806;2023-05-23T07:52:17;15.80;67.70
4354;DHT22;11018;51.258;6.806;2023-05-23T07:54:43;15.90;68.00
4354;DHT22;11018;51.258;6.806;2023-05-23T07:57:09;15.70;69.10
4354;DHT22;11018;51.258;6.806;2023-05-23T07:59:35;15.70;70.10
4354;DHT22;11018;51.258;6.806;2023-05-23T08:02:01;15.70;69.30
4354;DHT22;11018;51.258;6.806;2023-05-23T08:04:27;15.70;68.40
4354;DHT22;11018;51.258;6.806;2023-05-23T08:06:53;15.70;67.30
4354;DHT22;11018;51.258;6.806;2023-05-23T08:09:21;15.70;65.20
4354;DHT22;11018;51.258;6.806;2023-05-23T08:11:47;15.60;65.70
4354;DHT22;11018;51.258;6.806;2023-05-23T08:14:12;15.70;65.20
4354;DHT22;11018;51.258;6.806;2023-05-23T08:16:38;15.70;67.20
4354;DHT22;11018;51.258;6.806;2023-05-23T08:19:03;15.50;65.90
4354;DHT22;11018;51.258;6.806;2023-05-23T08:21:29;15.40;65.50
4354;DHT22;11018;51.258;6.806;2023-05-23T08:23:56;15.40;65.30
4354;DHT22;11018;51.258;6.806;2023-05-23T08:26:21;15.40;65.80
4354;DHT22;11018;51.258;6.806;2023-05-23T08:28:47;15.20;65.00
4354;DHT22;11018;51.258;6.806;2023-05-23T08:31:13;15.20;66.90
4354;DHT22;11018;51.258;6.806;2023-05-23T08:33:38;15.20;66.10
4354;DHT22;11018;51.258;6.806;2023-05-23T08:36:04;15.20;66.80
4354;DHT22;11018;51.258;6.806;2023-05-23T08:38:30;14.90;69.90
4354;DHT22;11018;51.258;6.806;2023-05-23T08:40:59;14.90;72.10
4354;DHT22;11018;51.258;6.806;2023-05-23T08:43:25;14.90;72.10
4354;DHT22;11018;51.258;6.806;2023-05-23T08:45:50;15.00;70.50
4354;DHT22;11018;51.258;6.806;2023-05-23T08:48:18;15.00;68.10
4354;DHT22;11018;51.258;6.806;2023-05-23T08:50:46;14.90;70.80
4354;DHT22;11018;51.258;6.806;2023-05-23T08:53:15;14.90;69.10
4354;DHT22;11018;51.258;6.806;2023-05-23T08:55:48;15.00;69.70
4354;DHT22;11018;51.258;6.806;2023-05-23T08:58:16;15.10;67.10
4354;DHT22;11018;51.258;6.806;2023-05-23T09:00:45;15.20;64.10
4354;DHT22;11018;51.258;6.806;2023-05-23T09:03:13;15.40;62.50
4354;DHT22;11018;51.258;6.806;2023-05-23T09:05:39;15.20;62.90
4354;DHT22;11018;51.258;6.806;2023-05-23T09:08:05;15.20;65.80
4354;DHT22;11018;51.258;6.806;2023-05-23T09:10:31;15.20;64.60
4354;DHT22;11018;51.258;6.806;2023-05-23T09:12:57;15.00;67.90
4354;DHT22;11018;51.258;6.806;2023-05-23T09:15:24;15.10;68.90
4354;DHT22;11018;51.258;6.806;2023-05-23T09:17:50;15.30;65.20
4354;DHT22;11018;51.258;6.806;2023-05-23T09:20:16;15.40;61.20
4354;DHT22;11018;51.258;6.806;2023-05-23T09:22:46;15.40;61.30
4354;DHT22;11018;51.258;6.806;2023-05-23T09:25:12;15.40;61.80
4354;DHT22;11018;51.258;6.806;2023-05-23T09:27:38;14.90;64.80
4354;DHT22;11018;51.258;6.806;2023-05-23T09:30:08;14.80;64.20
4354;DHT22;11018;51.258;6.806;2023-05-23T09:32:34;14.90;62.90
4354;DHT22;11018;51.258;6.806;2023-05-23T09:35:02;14.90;60.00
4354;DHT22;11018;51.258;6.806;2023-05-23T09:40:09;15.00;62.70
4354;DHT22;11018;51.258;6.806;2023-05-23T09:42:35;15.10;62.60
4354;DHT22;11018;51.258;6.806;2023-05-23T09:45:06;15.00;62.70
4354;DHT22;11018;51.258;6.806;2023-05-23T09:47:32;14.70;65.20
4354;DHT22;11018;51.258;6.806;2023-05-23T09:49:57;14.40;65.60
4354;DHT22;11018;51.258;6.806;2023-05-23T09:52:23;14.20;69.30
4354;DHT22;11018;51.258;6.806;2023-05-23T09:54:48;14.20;70.60
4354;DHT22;11018;51.258;6.806;2023-05-23T09:57:15;14.10;69.30
4354;DHT22;11018;51.258;6.806;2023-05-23T09:59:47;13.90;71.30
4354;DHT22;11018;51.258;6.806;2023-05-23T10:02:15;14.10;70.30
4354;DHT22;11018;51.258;6.806;2023-05-23T10:04:42;14.10;68.80
4354;DHT22;11018;51.258;6.806;2023-05-23T10:07:14;14.30;65.30
4354;DHT22;11018;51.258;6.806;2023-05-23T10:09:47;14.40;66.20
4354;DHT22;11018;51.258;6.806;2023-05-23T10:15:10;14.50;63.10
4354;DHT22;11018;51.258;6.806;2023-05-23T10:18:04;14.60;61.30
4354;DHT22;11018;51.258;6.806;2023-05-23T10:20:32;14.50;60.30
4354;DHT22;11018;51.258;6.806;2023-05-23T10:23:00;14.50;62.60
4354;DHT22;11018;51.258;6.806;2023-05-23T10:25:27;14.40;61.80
4354;DHT22;11018;51.258;6.806;2023-05-23T10:27:57;14.40;60.80
4354;DHT22;11018;51.258;6.806;2023-05-23T10:30:26;14.20;58.90
4354;DHT22;11018;51.258;6.806;2023-05-23T10:32:53;14.40;56.30
4354;DHT22;11018;51.258;6.806;2023-05-23T10:46:21;16.20;39.00
4354;DHT22;11018;51.258;6.806;2023-05-23T10:48:47;16.50;37.60
4354;DHT22;11018;51.258;6.806;2023-05-23T10:51:18;16.80;32.50
4354;DHT22;11018;51.258;6.806;2023-05-23T10:53:45;16.60;34.20
4354;DHT22;11018;51.258;6.806;2023-05-23T10:56:22;16.60;32.40
4354;DHT22;11018;51.258;6.806;2023-05-23T10:58:55;17.00;33.10
4354;DHT22;11018;51.258;6.806;2023-05-23T11:01:21;17.30;30.90
4354;DHT22;11018;51.258;6.806;2023-05-23T11:09:04;17.00;29.90
4354;DHT22;11018;51.258;6.806;2023-05-23T11:14:14;17.10;31.10
4354;DHT22;11018;51.258;6.806;2023-05-23T11:16:41;16.80;30.60
4354;DHT22;11018;51.258;6.806;2023-05-23T11:21:48;16.40;33.10
4354;DHT22;11018;51.258;6.806;2023-05-23T11:24:14;16.40;33.20
4354;DHT22;11018;51.258;6.806;2023-05-23T11:26:54;16.30;33.40
4354;DHT22;11018;51.258;6.806;2023-05-23T11:29:27;16.50;34.30
4354;DHT22;11018;51.258;6.806;2023-05-23T11:31:56;16.40;34.20
4354;DHT22;11018;51.258;6.806;2023-05-23T11:34:25;15.90;34.10
4354;DHT22;11018;51.258;6.806;2023-05-23T11:36:54;15.60;36.30
4354;DHT22;11018;51.258;6.806;2023-05-23T11:39:20;15.60;35.60
4354;DHT22;11018;51.258;6.806;2023-05-23T11:41:59;15.70;34.70
4354;DHT22;11018;51.258;6.806;2023-05-23T11:44:25;15.80;34.50
4354;DHT22;11018;51.258;6.806;2023-05-23T11:47:05;16.20;33.30
4354;DHT22;11018;51.258;6.806;2023-05-23T11:49:33;16.50;30.10
4354;DHT22;11018;51.258;6.806;2023-05-23T11:52:01;16.60;30.90
4354;DHT22;11018;51.258;6.806;2023-05-23T11:54:27;16.80;27.30
4354;DHT22;11018;51.258;6.806;2023-05-23T11:56:53;17.10;27.80
4354;DHT22;11018;51.258;6.806;2023-05-23T11:59:21;17.10;27.30
4354;DHT22;11018;51.258;6.806;2023-05-23T12:01:47;16.40;28.90
4354;DHT22;11018;51.258;6.806;2023-05-23T12:04:12;16.20;31.80
4354;DHT22;11018;51.258;6.806;2023-05-23T12:06:41;16.10;32.90
4354;DHT22;11018;51.258;6.806;2023-05-23T12:09:09;16.10;32.70
4354;DHT22;11018;51.258;6.806;2023-05-23T12:11:36;16.30;32.70
4354;DHT22;11018;51.258;6.806;2023-05-23T12:14:02;16.60;31.20
4354;DHT22;11018;51.258;6.806;2023-05-23T12:16:31;17.00;29.80
4354;DHT22;11018;51.258;6.806;2023-05-23T12:18:58;17.50;27.20
4354;DHT22;11018;51.258;6.806;2023-05-23T12:21:46;17.70;25.80
4354;DHT22;11018;51.258;6.806;2023-05-23T12:26:55;18.00;24.30
4354;DHT22;11018;51.258;6.806;2023-05-23T12:29:31;18.00;23.20
4354;DHT22;11018;51.258;6.806;2023-05-23T12:31:58;18.30;22.50
4354;DHT22;11018;51.258;6.806;2023-05-23T12:34:24;17.70;21.60
4354;DHT22;11018;51.258;6.806;2023-05-23T12:36:53;17.00;24.20
4354;DHT22;11018;51.258;6.806;2023-05-23T12:39:24;16.80;24.10
4354;DHT22;11018;51.258;6.806;2023-05-23T12:41:51;16.70;25.90
4354;DHT22;11018;51.258;6.806;2023-05-23T12:44:17;17.00;25.70
4354;DHT22;11018;51.258;6.806;2023-05-23T12:46:42;17.50;22.70
4354;DHT22;11018;51.258;6.806;2023-05-23T12:49:08;17.70;18.20
4354;DHT22;11018;51.258;6.806;2023-05-23T12:51:34;17.60;19.40
4354;DHT22;11018;51.258;6.806;2023-05-23T12:54:00;17.70;19.80
4354;DHT22;11018;51.258;6.806;2023-05-23T12:56:26;17.60;19.50
4354;DHT22;11018;51.258;6.806;2023-05-23T12:58:52;17.90;19.90
4354;DHT22;11018;51.258;6.806;2023-05-23T13:01:20;17.80;19.10
4354;DHT22;11018;51.258;6.806;2023-05-23T13:03:46;17.20;19.90
4354;DHT22;11018;51.258;6.806;2023-05-23T13:06:11;17.60;20.20
4354;DHT22;11018;51.258;6.806;2023-05-23T13:08:37;17.90;18.90
4354;DHT22;11018;51.258;6.806;2023-05-23T13:11:02;18.20;17.10
4354;DHT22;11018;51.258;6.806;2023-05-23T13:13:28;18.50;16.80
4354;DHT22;11018;51.258;6.806;2023-05-23T13:15:55;18.90;15.90
4354;DHT22;11018;51.258;6.806;2023-05-23T13:18:20;19.20;15.50
4354;DHT22;11018;51.258;6.806;2023-05-23T13:20:46;19.30;15.40
4354;DHT22;11018;51.258;6.806;2023-05-23T13:23:11;18.70;15.70
4354;DHT22;11018;51.258;6.806;2023-05-23T13:25:37;19.00;15.80
4354;DHT22;11018;51.258;6.806;2023-05-23T13:28:02;19.40;14.60
4354;DHT22;11018;51.258;6.806;2023-05-23T13:30:28;19.60;14.00
4354;DHT22;11018;51.258;6.806;2023-05-23T13:32:54;19.60;14.00
4354;DHT22;11018;51.258;6.806;2023-05-23T13:35:19;19.40;13.40
4354;DHT22;11018;51.258;6.806;2023-05-23T13:37:45;19.40;15.00
4354;DHT22;11018;51.258;6.806;2023-05-23T13:40:18;19.20;14.40
4354;DHT22;11018;51.258;6.806;2023-05-23T13:42:45;19.10;14.30
4354;DHT22;11018;51.258;6.806;2023-05-23T13:45:11;18.60;15.00
4354;DHT22;11018;51.258;6.806;2023-05-23T13:47:37;18.70;15.60
4354;DHT22;11018;51.258;6.806;2023-05-23T13:50:04;18.80;14.90
4354;DHT22;11018;51.258;6.806;2023-05-23T13:52:33;18.60;15.40
4354;DHT22;11018;51.258;6.806;2023-05-23T13:54:58;18.30;15.40
4354;DHT22;11018;51.258;6.806;2023-05-23T13:57:26;18.30;16.90
4354;DHT22;11018;51.258;6.806;2023-05-23T13:59:51;18.40;16.40
4354;DHT22;11018;51.258;6.806;2023-05-23T14:02:17;18.30;16.30
4354;DHT22;11018;51.258;6.806;2023-05-23T14:04:42;18.50;16.20
4354;DHT22;11018;51.258;6.806;2023-05-23T14:07:08;18.50;15.60
4354;DHT22;11018;51.258;6.806;2023-05-23T14:09:34;18.20;15.60
4354;DHT22;11018;51.258;6.806;2023-05-23T14:11:59;18.20;16.10
4354;DHT22;11018;51.258;6.806;2023-05-23T14:14:25;17.90;16.10
4354;DHT22;11018;51.258;6.806;2023-05-23T14:16:51;18.10;16.20
4354;DHT22;11018;51.258;6.806;2023-05-23T14:19:17;18.00;16.10
4354;DHT22;11018;51.258;6.806;2023-05-23T14:21:43;18.00;16.90
4354;DHT22;11018;51.258;6.806;2023-05-23T14:24:08;17.90;16.80
4354;DHT22;11018;51.258;6.806;2023-05-23T14:26:34;17.70;16.50
4354;DHT22;11018;51.258;6.806;2023-05-23T14:29:00;17.70;17.10
4354;DHT22;11018;51.258;6.806;2023-05-23T14:31:25;18.00;16.80
4354;DHT22;11018;51.258;6.806;2023-05-23T14:33:51;18.40;16.10
4354;DHT22;11018;51.258;6.806;2023-05-23T14:36:16;18.90;15.50
4354;DHT22;11018;51.258;6.806;2023-05-23T14:38:42;18.90;14.60
4354;DHT22;11018;51.258;6.806;2023-05-23T14:41:13;19.20;14.80
4354;DHT22;11018;51.258;6.806;2023-05-23T14:43:39;19.10;14.00
4354;DHT22;11018;51.258;6.806;2023-05-23T14:46:04;18.80;14.60
4354;DHT22;11018;51.258;6.806;2023-05-23T14:48:30;18.60;14.90
4354;DHT22;11018;51.258;6.806;2023-05-23T14:50:56;19.20;14.70
4354;DHT22;11018;51.258;6.806;2023-05-23T14:53:26;20.00;12.20
4354;DHT22;11018;51.258;6.806;2023-05-23T14:55:52;19.90;11.50
4354;DHT22;11018;51.258;6.806;2023-05-23T14:58:17;20.00;11.60
4354;DHT22;11018;51.258;6.806;2023-05-23T15:00:43;19.70;10.70
4354;DHT22;11018;51.258;6.806;2023-05-23T15:03:11;19.20;12.10
4354;DHT22;11018;51.258;6.806;2023-05-23T15:05:37;20.00;11.90
4354;DHT22;11018;51.258;6.806;2023-05-23T15:08:03;20.30;10.90
4354;DHT22;11018;51.258;6.806;2023-05-23T15:10:28;20.60;10.30
4354;DHT22;11018;51.258;6.806;2023-05-23T15:12:54;20.50;10.20
4354;DHT22;11018;51.258;6.806;2023-05-23T15:15:20;20.40;9.80
4354;DHT22;11018;51.258;6.806;2023-05-23T15:17:48;20.00;10.00
4354;DHT22;11018;51.258;6.806;2023-05-23T15:22:42;20.20;10.70
4354;DHT22;11018;51.258;6.806;2023-05-23T15:25:08;20.30;10.50
4354;DHT22;11018;51.258;6.806;2023-05-23T15:27:34;19.20;11.70
4354;DHT22;11018;51.258;6.806;2023-05-23T15:30:01;19.00;12.90
4354;DHT22;11018;51.258;6.806;2023-05-23T15:32:26;19.30;13.80
4354;DHT22;11018;51.258;6.806;2023-05-23T15:34:52;20.10;11.70
4354;DHT22;11018;51.258;6.806;2023-05-23T15:37:17;20.50;10.80
4354;DHT22;11018;51.258;6.806;2023-05-23T15:39:43;20.90;9.50
4354;DHT22;11018;51.258;6.806;2023-05-23T15:42:09;21.00;9.60
4354;DHT22;11018;51.258;6.806;2023-05-23T15:44:34;20.80;8.70
4354;DHT22;11018;51.258;6.806;2023-05-23T15:47:00;20.20;9.30
4354;DHT22;11018;51.258;6.806;2023-05-23T15:49:26;19.90;10.60
4354;DHT22;11018;51.258;6.806;2023-05-23T15:51:51;19.50;11.50
4354;DHT22;11018;51.258;6.806;2023-05-23T15:54:18;20.20;11.60
4354;DHT22;11018;51.258;6.806;2023-05-23T15:56:44;19.30;11.50
4354;DHT22;11018;51.258;6.806;2023-05-23T15:59:09;19.40;12.20
4354;DHT22;11018;51.258;6.806;2023-05-23T16:01:35;18.90;12.50
4354;DHT22;11018;51.258;6.806;2023-05-23T16:04:01;18.70;13.50
4354;DHT22;11018;51.258;6.806;2023-05-23T16:06:26;18.80;13.50
4354;DHT22;11018;51.258;6.806;2023-05-23T16:08:53;18.50;14.00
4354;DHT22;11018;51.258;6.806;2023-05-23T16:11:19;18.20;14.80
4354;DHT22;11018;51.258;6.806;2023-05-23T16:13:46;18.00;14.80
4354;DHT22;11018;51.258;6.806;2023-05-23T16:16:12;17.80;15.10
4354;DHT22;11018;51.258;6.806;2023-05-23T16:18:37;17.60;15.20
4354;DHT22;11018;51.258;6.806;2023-05-23T16:21:03;17.90;15.30